Trine Charlotte — LMRY — position and weather

sailwx.info

Track history (hours):
 
Tides and Currents Weather Stations Pressure Air Temp Water Temp Dewpoint Dewpoint Depression Visibility Wind Speed Wind Dir Waves Ship Positions

Trine Charlotte

Last reported at 2016-Sep-29 08:12 UTC. Time now 2016-Oct-01 01:34 UTC.
Position N 67°32' E 014°30'.

Length 66 m; draft 5 m.

Type: Cargo ship. MMSI: 257233000.

Date/timePositionNaut miles runAvg speedWind from/ knotsBaromVisibWave heightAir tempDewpointWater temp
2016-Sep-29 08:12N 67°32' E 014°30'6 9.6
2016-Sep-29 07:33N 67°26' E 014°28'52 4.9
2016-Sep-28 21:06N 66°44' E 013°13'15 9.4
2016-Sep-28 19:31N 66°30' E 012°59'2 0.1
2016-Sep-27 00:33N 66°32' E 012°58'10 0.8
2016-Sep-26 11:33N 66°22' E 012°58'4 1.3
2016-Sep-26 08:11N 66°18' E 012°56'45 8.0
2016-Sep-26 02:31N 66°60' E 013°38'9 9.0
2016-Sep-26 01:32N 67°05' E 013°56'8 8.6
2016-Sep-26 00:33N 67°13' E 014°07'29 8.9
2016-Sep-25 21:17N 67°35' E 014°55'10 0.2
2016-Sep-24 03:33N 67°32' E 014°30'10 9.7
2016-Sep-24 02:33N 67°23' E 014°25'6 6.4
2016-Sep-24 01:33N 67°16' E 014°21'0 0.0
2016-Sep-24 00:33N 67°16' E 014°21'1 0.2
2016-Sep-23 19:33N 67°16' E 014°18'13 6.4
2016-Sep-23 17:33N 67°15' E 014°51'4 4.0
2016-Sep-23 16:34N 67°15' E 015°02'12 1.7
2016-Sep-23 09:33N 67°07' E 015°25'1 0.3
2016-Sep-23 06:33N 67°06' E 015°24'0 0.1
2016-Sep-23 04:33N 67°06' E 015°23'4 3.6
2016-Sep-23 03:33N 67°10' E 015°26'7 7.1
2016-Sep-23 02:33N 67°14' E 015°12'7 6.7
2016-Sep-23 01:33N 67°16' E 014°55'5 4.7
2016-Sep-23 00:33N 67°14' E 014°44'3 3.3
2016-Sep-22 23:33N 67°15' E 014°37'15 5.0
2016-Sep-22 20:33N 67°09' E 014°02'54 6.7
2016-Sep-22 12:30N 66°21' E 012°57'10 1.3
2016-Sep-22 04:33N 66°32' E 012°58'12 9.1
2016-Sep-22 03:14N 66°43' E 013°10'23 8.7
2016-Sep-22 00:33N 67°02' E 013°45'9 9.5
2016-Sep-21 23:33N 67°08' E 014°02'10 9.5
2016-Sep-21 22:33N 67°16' E 014°17'1 0.5
2016-Sep-21 19:33N 67°16' E 014°21'0 0.0
2016-Sep-21 16:33N 67°16' E 014°21'56 6.9
2016-Sep-21 08:31N 66°31' E 012°58'11 1.9
2016-Sep-21 02:31N 66°20' E 012°57'62 6.9
2016-Sep-20 17:33N 67°13' E 014°18'11 3.6
2016-Sep-20 14:33N 67°18' E 014°43'0 0.0
2016-Sep-20 13:33N 67°18' E 014°43'0 0.0
2016-Sep-20 10:31N 67°18' E 014°43'0 0.0
2016-Sep-20 08:33N 67°18' E 014°43'0 0.0
2016-Sep-20 07:33N 67°18' E 014°43'0 0.0
2016-Sep-20 06:32N 67°18' E 014°43'0 0.0
2016-Sep-20 02:33N 67°18' E 014°43'0 0.0
2016-Sep-19 23:33N 67°18' E 014°43'0 0.0
2016-Sep-19 19:26N 67°18' E 014°43'0 0.0
2016-Sep-19 16:24N 67°18' E 014°43'0 0.0
2016-Sep-19 14:28N 67°18' E 014°43'0 0.0
2016-Sep-19 13:33N 67°18' E 014°43'0 0.0
2016-Sep-19 12:33N 67°18' E 014°43'6 6.1
2016-Sep-19 11:33N 67°15' E 014°29'10 4.9
2016-Sep-19 09:33N 67°25' E 014°27'  
Track history (hours):
 
Tides and Currents Weather Stations Pressure Air Temp Water Temp Dewpoint Dewpoint Depression Visibility Wind Speed Wind Dir Waves Ship Positions

Trine Charlotte

Last reported at 2016-Sep-29 08:12 UTC. Time now 2016-Oct-01 01:34 UTC.
Position N 67°32' E 014°30'.

Length 66 m; draft 5 m.

Type: Cargo ship. MMSI: 257233000.

Date/timePositionNaut miles runAvg speedWind from/ knotsBaromVisibWave heightAir tempDewpointWater temp
2016-Sep-29 08:12N 67°32' E 014°30'6 9.6
2016-Sep-29 07:33N 67°26' E 014°28'52 4.9
2016-Sep-28 21:06N 66°44' E 013°13'15 9.4
2016-Sep-28 19:31N 66°30' E 012°59'2 0.1
2016-Sep-27 00:33N 66°32' E 012°58'10 0.8
2016-Sep-26 11:33N 66°22' E 012°58'4 1.3
2016-Sep-26 08:11N 66°18' E 012°56'45 8.0
2016-Sep-26 02:31N 66°60' E 013°38'9 9.0
2016-Sep-26 01:32N 67°05' E 013°56'8 8.6
2016-Sep-26 00:33N 67°13' E 014°07'29 8.9
2016-Sep-25 21:17N 67°35' E 014°55'10 0.2
2016-Sep-24 03:33N 67°32' E 014°30'10 9.7
2016-Sep-24 02:33N 67°23' E 014°25'6 6.4
2016-Sep-24 01:33N 67°16' E 014°21'0 0.0
2016-Sep-24 00:33N 67°16' E 014°21'1 0.2
2016-Sep-23 19:33N 67°16' E 014°18'13 6.4
2016-Sep-23 17:33N 67°15' E 014°51'4 4.0
2016-Sep-23 16:34N 67°15' E 015°02'12 1.7
2016-Sep-23 09:33N 67°07' E 015°25'1 0.3
2016-Sep-23 06:33N 67°06' E 015°24'0 0.1
2016-Sep-23 04:33N 67°06' E 015°23'4 3.6
2016-Sep-23 03:33N 67°10' E 015°26'7 7.1
2016-Sep-23 02:33N 67°14' E 015°12'7 6.7
2016-Sep-23 01:33N 67°16' E 014°55'5 4.7
2016-Sep-23 00:33N 67°14' E 014°44'3 3.3
2016-Sep-22 23:33N 67°15' E 014°37'15 5.0
2016-Sep-22 20:33N 67°09' E 014°02'54 6.7
2016-Sep-22 12:30N 66°21' E 012°57'10 1.3
2016-Sep-22 04:33N 66°32' E 012°58'12 9.1
2016-Sep-22 03:14N 66°43' E 013°10'23 8.7
2016-Sep-22 00:33N 67°02' E 013°45'9 9.5
2016-Sep-21 23:33N 67°08' E 014°02'10 9.5
2016-Sep-21 22:33N 67°16' E 014°17'1 0.5
2016-Sep-21 19:33N 67°16' E 014°21'0 0.0
2016-Sep-21 16:33N 67°16' E 014°21'56 6.9
2016-Sep-21 08:31N 66°31' E 012°58'11 1.9
2016-Sep-21 02:31N 66°20' E 012°57'62 6.9
2016-Sep-20 17:33N 67°13' E 014°18'11 3.6
2016-Sep-20 14:33N 67°18' E 014°43'0 0.0
2016-Sep-20 13:33N 67°18' E 014°43'0 0.0
2016-Sep-20 10:31N 67°18' E 014°43'0 0.0
2016-Sep-20 08:33N 67°18' E 014°43'0 0.0
2016-Sep-20 07:33N 67°18' E 014°43'0 0.0
2016-Sep-20 06:32N 67°18' E 014°43'0 0.0
2016-Sep-20 02:33N 67°18' E 014°43'0 0.0
2016-Sep-19 23:33N 67°18' E 014°43'0 0.0
2016-Sep-19 19:26N 67°18' E 014°43'0 0.0
2016-Sep-19 16:24N 67°18' E 014°43'0 0.0
2016-Sep-19 14:28N 67°18' E 014°43'0 0.0
2016-Sep-19 13:33N 67°18' E 014°43'0 0.0
2016-Sep-19 12:33N 67°18' E 014°43'6 6.1
2016-Sep-19 11:33N 67°15' E 014°29'10 4.9
2016-Sep-19 09:33N 67°25' E 014°27'  

Dump ship's entire track history